Time;durP1;ratioP1;P1;durP2;ratioP2;P2;SDS_P1;SDS_P2;PMS_P1;PMS_P2;Temp;Humidity;BMP_temperature;BMP_pressure;BME280_temperature;BME280_humidity;BME280_pressure;Samples;Min_cycle;Max_cycle;Signal;HPM_P1;HPM_P2
2023/04/16 00:00:04;;;;;;;40.75;21.23;;;6.30;99.90;;;;;;6157960;23;20029;-92
2023/04/16 00:02:51;;;;;;;40.90;21.15;;;6.30;99.90;;;;;;6156406;23;20037;-89
2023/04/16 00:06:00;;;;;;;;;;;;;;;;;;;;;
2023/04/16 00:09:19;;;;;;;50.78;22.92;;;6.30;99.90;;;;;;6159443;23;20047;-92
2023/04/16 00:12:24;;;;;;;45.17;23.42;;;6.20;99.90;;;;;;6157918;23;20025;-92
2023/04/16 00:15:22;;;;;;;45.38;23.95;;;6.20;99.90;;;;;;6157400;23;20034;-92
2023/04/16 00:18:09;;;;;;;47.45;23.17;;;6.30;99.90;;;;;;6163857;22;20030;-93
2023/04/16 00:20:58;;;;;;;45.47;23.70;;;6.30;99.90;;;;;;6160447;23;20325;-90
2023/04/16 00:23:46;;;;;;;52.35;25.77;;;6.30;99.90;;;;;;6159814;23;20040;-91
2023/04/16 00:26:34;;;;;;;47.10;25.45;;;6.30;99.90;;;;;;6157198;23;20474;-92
2023/04/16 00:29:50;;;;;;;55.55;26.27;;;6.30;99.90;;;;;;6156673;23;20744;-92
2023/04/16 00:33:07;;;;;;;;;;;;;;;;;;;;;
2023/04/16 00:36:31;;;;;;;58.17;27.90;;;6.30;99.90;;;;;;6160783;23;20444;-93
2023/04/16 00:39:23;;;;;;;53.47;25.70;;;6.20;99.90;;;;;;6159791;23;20381;-92
2023/04/16 00:42:31;;;;;;;48.75;24.50;;;6.30;99.90;;;;;;6101753;23;20032;-88
2023/04/16 00:45:27;;;;;;;48.67;25.33;;;6.30;99.90;;;;;;6157553;23;20064;-90
2023/04/16 00:48:49;;;;;;;49.55;25.95;;;6.20;99.90;;;;;;6159326;23;20029;-92
2023/04/16 00:51:40;;;;;;;50.42;25.17;;;6.20;99.90;;;;;;6165286;23;20092;-91
2023/04/16 00:54:30;;;;;;;49.58;24.80;;;6.20;99.90;;;;;;6163979;23;20059;-92
2023/04/16 00:57:19;;;;;;;54.38;26.17;;;6.20;99.90;;;;;;6164186;23;20055;-92
2023/04/16 01:00:33;;;;;;;53.20;25.75;;;6.20;99.90;;;;;;6157975;23;20314;-92
2023/04/16 01:03:33;;;;;;;50.97;25.90;;;6.20;99.90;;;;;;6155801;23;20122;-93
2023/04/16 01:07:14;;;;;;;52.50;26.70;;;6.20;99.90;;;;;;6157235;23;20025;-93
2023/04/16 01:10:19;;;;;;;49.25;24.90;;;6.20;99.90;;;;;;6158307;23;20115;-93
2023/04/16 01:13:24;;;;;;;54.55;27.35;;;6.20;99.90;;;;;;6166332;23;20021;-93
2023/04/16 01:16:34;;;;;;;53.60;27.35;;;6.20;99.90;;;;;;6168628;23;20051;-92
2023/04/16 01:19:35;;;;;;;55.50;27.00;;;6.20;99.90;;;;;;6298812;22;20015;-91
2023/04/16 01:22:49;;;;;;;54.33;27.25;;;6.20;99.90;;;;;;6297448;22;20330;-90
2023/04/16 01:25:38;;;;;;;54.40;25.48;;;6.20;99.90;;;;;;6290260;22;20020;-91
2023/04/16 01:28:34;;;;;;;54.22;27.58;;;6.20;99.90;;;;;;6287698;22;20030;-92
2023/04/16 01:32:30;;;;;;;52.25;25.65;;;6.20;99.90;;;;;;6284186;22;20024;-93
2023/04/16 01:35:45;;;;;;;50.45;25.25;;;6.20;99.90;;;;;;6286835;22;20027;-91
2023/04/16 01:38:35;;;;;;;51.08;25.52;;;6.20;99.90;;;;;;6286498;22;20020;-93
2023/04/16 01:41:25;;;;;;;47.97;23.95;;;6.20;99.90;;;;;;6265052;22;20019;-92
2023/04/16 01:44:22;;;;;;;43.45;22.23;;;6.20;99.90;;;;;;6284554;22;20054;-93
2023/04/16 01:47:12;;;;;;;45.53;22.35;;;6.20;99.90;;;;;;6261192;22;20062;-91
2023/04/16 01:50:31;;;;;;;38.53;21.00;;;6.20;99.90;;;;;;6282292;22;20030;-92
2023/04/16 01:53:23;;;;;;;49.45;23.92;;;6.20;99.90;;;;;;6283132;22;20250;-91
2023/04/16 01:56:18;;;;;;;39.70;21.88;;;6.20;99.90;;;;;;6267397;22;20022;-91
2023/04/16 01:59:13;;;;;;;43.40;22.15;;;6.20;99.90;;;;;;6262541;22;20062;-94
2023/04/16 02:02:15;;;;;;;44.53;21.42;;;6.20;99.90;;;;;;6285366;22;20024;-91
2023/04/16 02:05:31;;;;;;;38.47;20.00;;;6.20;99.90;;;;;;6285688;22;20035;-92
2023/04/16 02:09:12;;;;;;;37.42;19.05;;;6.20;99.90;;;;;;6289430;22;20446;-91
2023/04/16 02:12:26;;;;;;;37.92;18.60;;;6.20;99.90;;;;;;6285289;22;20735;-93
2023/04/16 02:15:35;;;;;;;35.85;18.25;;;6.20;99.90;;;;;;6267098;22;20431;-92
2023/04/16 02:18:45;;;;;;;34.65;18.42;;;6.20;99.90;;;;;;6177118;22;20022;-92
2023/04/16 02:34:44;;;;;;;25.15;12.00;;;6.20;99.90;;;;;;6079437;23;20027;-94
2023/04/16 02:37:34;;;;;;;31.42;15.63;;;6.20;99.90;;;;;;6163434;23;20471;-92
2023/04/16 02:40:25;;;;;;;25.42;13.77;;;6.20;99.90;;;;;;6225184;23;20025;-93
2023/04/16 02:47:45;;;;;;;26.60;15.40;;;6.10;99.90;;;;;;6136077;23;20329;-93
2023/04/16 02:50:34;;;;;;;27.05;14.48;;;6.20;99.90;;;;;;6062664;23;20033;-89
2023/04/16 02:57:39;;;;;;;;;;;;;;;;;;;;;
2023/04/16 03:04:59;;;;;;;30.50;14.93;;;6.20;99.90;;;;;;6162112;23;20071;-92
2023/04/16 03:08:14;;;;;;;27.67;14.85;;;6.20;99.90;;;;;;6168069;23;20104;-93
2023/04/16 03:11:36;;;;;;;31.55;15.15;;;6.20;99.90;;;;;;6162950;23;20040;-93
2023/04/16 03:14:42;;;;;;;33.20;15.07;;;6.20;99.90;;;;;;6168414;23;20010;-87
2023/04/16 03:17:42;;;;;;;;;;;;;;;;;;;;;
2023/04/16 03:25:24;;;;;;;33.60;16.33;;;6.10;99.90;;;;;;6223184;23;20131;-92
2023/04/16 03:32:16;;;;;;;38.30;17.13;;;6.20;99.90;;;;;;6226015;23;20108;-93
2023/04/16 03:35:39;;;;;;;37.95;17.95;;;6.10;99.90;;;;;;6099917;23;20034;-93
2023/04/16 03:38:45;;;;;;;44.25;18.63;;;6.10;99.90;;;;;;6108739;23;20038;-94
2023/04/16 03:49:35;;;;;;;;;;;;;;;;;;;;;
2023/04/16 03:58:03;;;;;;;;;;;;;;;;;;;;;
2023/04/16 04:01:40;;;;;;;49.05;20.38;;;6.10;99.90;;;;;;6051404;23;20055;-90
2023/04/16 04:04:31;;;;;;;52.92;21.77;;;6.10;99.90;;;;;;6027204;23;20037;-92
2023/04/16 04:08:10;;;;;;;51.17;21.23;;;6.10;99.90;;;;;;6028487;23;20023;-93
2023/04/16 04:15:13;;;;;;;48.53;20.60;;;6.10;99.90;;;;;;6000139;23;20015;-91
2023/04/16 04:18:21;;;;;;;53.08;21.02;;;6.10;99.90;;;;;;6046486;23;20741;-92
2023/04/16 04:21:39;;;;;;;57.10;22.52;;;6.10;99.90;;;;;;6047757;23;20051;-93
2023/04/16 04:24:57;;;;;;;;;;;;;;;;;;;;;
2023/04/16 04:27:48;;;;;;;44.10;18.85;;;6.10;99.90;;;;;;5983810;23;20312;-93
2023/04/16 04:31:28;;;;;;;43.10;18.65;;;6.10;99.90;;;;;;5978972;23;20487;-91
2023/04/16 04:34:43;;;;;;;49.67;19.98;;;6.10;99.90;;;;;;6031218;23;20136;-93
2023/04/16 04:38:31;;;;;;;;;;;;;;;;;;;;;
2023/04/16 04:41:49;;;;;;;41.72;18.15;;;6.10;99.90;;;;;;6191585;23;20021;-92
2023/04/16 04:44:40;;;;;;;42.65;18.92;;;6.10;99.90;;;;;;6195921;23;20021;-91
2023/04/16 04:48:14;;;;;;;41.75;18.27;;;6.10;99.90;;;;;;6159484;23;20076;-92
2023/04/16 04:51:09;;;;;;;38.72;17.25;;;6.10;99.90;;;;;;6105672;23;20113;-93
2023/04/16 04:54:00;;;;;;;38.97;17.98;;;6.10;99.90;;;;;;6083325;23;20049;-93
2023/04/16 04:57:15;;;;;;;39.03;17.35;;;6.00;99.90;;;;;;6100855;23;20402;-94
2023/04/16 05:00:56;;;;;;;41.85;18.65;;;6.10;99.90;;;;;;6104983;23;20026;-92
2023/04/16 05:03:45;;;;;;;37.03;17.17;;;6.10;99.90;;;;;;6202694;23;20025;-90
2023/04/16 05:07:05;;;;;;;41.92;17.80;;;6.10;99.90;;;;;;6116459;23;20026;-91
2023/04/16 05:15:04;;;;;;;44.95;18.98;;;6.10;99.90;;;;;;6229125;22;20012;-92
2023/04/16 05:21:33;;;;;;;47.22;19.77;;;6.10;99.90;;;;;;6223284;23;20024;-92
2023/04/16 05:24:24;;;;;;;45.25;19.88;;;6.10;99.90;;;;;;6231692;22;20158;-92
2023/04/16 05:35:51;;;;;;;53.35;21.77;;;6.10;99.90;;;;;;6144732;23;20137;-92
2023/04/16 05:39:07;;;;;;;53.38;21.75;;;6.10;99.90;;;;;;6150748;23;20076;-92
2023/04/16 05:42:19;;;;;;;86.68;31.27;;;6.10;99.90;;;;;;6190139;23;20417;-93
2023/04/16 05:45:50;;;;;;;86.53;33.42;;;6.10;99.90;;;;;;6195168;23;20108;-94
2023/04/16 05:48:46;;;;;;;106.90;35.63;;;6.10;99.90;;;;;;6187475;23;20021;-92
2023/04/16 05:51:34;;;;;;;98.72;35.53;;;6.10;99.90;;;;;;6190833;23;20040;-93
2023/04/16 05:54:26;;;;;;;99.65;35.13;;;6.10;99.90;;;;;;6188219;23;20104;-92
2023/04/16 05:57:22;;;;;;;105.53;35.95;;;6.10;99.90;;;;;;6140786;23;20021;-93
2023/04/16 06:00:12;;;;;;;110.47;38.03;;;6.10;99.90;;;;;;6133782;23;20025;-91
2023/04/16 06:03:00;;;;;;;109.82;39.50;;;6.10;99.90;;;;;;6128651;23;20026;-92
2023/04/16 06:06:36;;;;;;;134.65;40.60;;;6.10;99.90;;;;;;6129671;23;20022;-91
2023/04/16 06:09:23;;;;;;;143.23;42.60;;;6.10;99.90;;;;;;6139001;23;20022;-90
2023/04/16 06:12:12;;;;;;;122.50;41.00;;;6.10;99.90;;;;;;6133951;23;20037;-91
2023/04/16 06:15:00;;;;;;;135.02;41.85;;;6.10;99.90;;;;;;6110611;23;20034;-91
2023/04/16 06:17:51;;;;;;;129.10;40.30;;;6.10;99.90;;;;;;6129854;23;20030;-91
2023/04/16 06:20:44;;;;;;;116.72;38.38;;;6.10;99.90;;;;;;6128586;23;20424;-90
2023/04/16 06:23:32;;;;;;;108.63;36.85;;;6.00;99.90;;;;;;6126563;23;20026;-93
2023/04/16 06:26:28;;;;;;;116.40;39.25;;;6.10;99.90;;;;;;6127689;23;20022;-94
2023/04/16 06:29:48;;;;;;;132.02;42.28;;;6.10;99.90;;;;;;6131696;23;20057;-94
2023/04/16 06:32:49;;;;;;;118.65;41.03;;;6.10;99.90;;;;;;6143382;23;20034;-94
2023/04/16 06:35:59;;;;;;;117.13;39.10;;;6.10;99.90;;;;;;6130650;23;20073;-92
2023/04/16 06:39:04;;;;;;;137.98;45.17;;;6.10;99.90;;;;;;6127369;23;20010;-90
2023/04/16 06:42:04;;;;;;;143.10;43.67;;;6.10;99.90;;;;;;6129360;23;20580;-93
2023/04/16 06:44:57;;;;;;;153.88;45.15;;;6.10;99.90;;;;;;6133781;23;20022;-94
2023/04/16 06:51:47;;;;;;;200.32;50.13;;;6.10;99.90;;;;;;6127132;23;20404;-92
2023/04/16 06:54:38;;;;;;;176.20;51.47;;;6.10;99.90;;;;;;6122440;23;20045;-90
2023/04/16 06:57:25;;;;;;;168.48;51.22;;;6.10;99.90;;;;;;6128404;23;20025;-91
2023/04/16 07:00:13;;;;;;;216.05;56.00;;;6.10;99.90;;;;;;6124356;23;20034;-91
2023/04/16 07:03:00;;;;;;;172.40;51.92;;;6.10;99.90;;;;;;6127459;23;20026;-91
2023/04/16 07:05:49;;;;;;;172.90;53.80;;;6.10;99.90;;;;;;6126399;23;20033;-91
2023/04/16 07:08:39;;;;;;;172.00;52.55;;;6.10;99.90;;;;;;6132388;23;20018;-94
2023/04/16 07:11:34;;;;;;;162.95;51.78;;;6.10;99.90;;;;;;6108850;23;20456;-91
2023/04/16 07:14:24;;;;;;;201.85;54.42;;;6.10;99.90;;;;;;6137862;23;20026;-91
2023/04/16 07:18:10;;;;;;;;;;;;;;;;;;;;;
2023/04/16 07:20:59;;;;;;;193.90;54.63;;;6.20;99.90;;;;;;6128690;23;20026;-92
2023/04/16 07:24:02;;;;;;;;;;;;;;;;;;;;;
2023/04/16 07:27:08;;;;;;;161.65;52.53;;;6.20;99.90;;;;;;6097389;23;20018;-93
2023/04/16 07:29:58;;;;;;;151.00;50.53;;;6.20;99.90;;;;;;6062804;23;20023;-89
2023/04/16 07:32:55;;;;;;;156.65;52.22;;;6.20;99.90;;;;;;6038907;23;20038;-92
2023/04/16 07:35:44;;;;;;;162.80;50.20;;;6.20;99.90;;;;;;6041579;23;20031;-91
2023/04/16 07:38:34;;;;;;;146.77;51.38;;;6.20;99.90;;;;;;6040203;23;20054;-94
2023/04/16 07:42:03;;;;;;;155.18;50.53;;;6.20;99.90;;;;;;6021174;23;20031;-93
2023/04/16 07:44:56;;;;;;;141.95;50.33;;;6.20;99.90;;;;;;6025489;23;20350;-92
2023/04/16 07:48:34;;;;;;;127.05;46.78;;;6.20;99.90;;;;;;6024801;23;20027;-91
2023/04/16 07:52:26;;;;;;;137.40;48.33;;;6.30;99.90;;;;;;6039559;23;20473;-91
2023/04/16 07:55:53;;;;;;;142.13;48.50;;;6.30;99.90;;;;;;5916576;24;20024;-93
2023/04/16 07:59:17;;;;;;;;;;;;;;;;;;;;;
2023/04/16 08:02:29;;;;;;;139.43;49.17;;;6.30;99.90;;;;;;5956700;24;20027;-92
2023/04/16 08:09:51;;;;;;;135.20;46.67;;;6.30;99.90;;;;;;6076115;23;20053;-93
2023/04/16 08:12:53;;;;;;;124.78;46.30;;;6.40;99.90;;;;;;6038845;23;20041;-90
2023/04/16 08:15:44;;;;;;;113.50;44.05;;;6.40;99.90;;;;;;6069180;23;20035;-90
2023/04/16 08:18:34;;;;;;;118.60;44.78;;;6.30;99.90;;;;;;6069727;23;20105;-91
2023/04/16 08:21:31;;;;;;;120.70;45.45;;;6.30;99.90;;;;;;6062465;23;20030;-93
2023/04/16 08:24:39;;;;;;;123.53;46.78;;;6.40;99.90;;;;;;6062786;23;20023;-91
2023/04/16 08:27:49;;;;;;;118.53;44.60;;;6.30;99.90;;;;;;6133796;23;20369;-93
2023/04/16 08:30:44;;;;;;;115.00;46.22;;;6.30;99.90;;;;;;6134465;23;20026;-91
2023/04/16 08:33:41;;;;;;;103.00;43.03;;;6.30;99.90;;;;;;6133932;23;20040;-92
2023/04/16 08:36:31;;;;;;;113.63;45.97;;;6.40;99.90;;;;;;6130734;23;20036;-91
2023/04/16 08:39:18;;;;;;;98.15;42.70;;;6.40;99.90;;;;;;6130950;23;20026;-90
2023/04/16 08:42:42;;;;;;;101.50;42.40;;;6.50;99.90;;;;;;6131103;23;20030;-93
2023/04/16 08:45:40;;;;;;;;;;;;;;;;;;;;;
2023/04/16 08:49:07;;;;;;;95.50;40.90;;;6.50;99.90;;;;;;6098425;23;19939;-91
2023/04/16 08:56:02;;;;;;;86.82;40.13;;;6.50;99.90;;;;;;6132457;23;20025;-89
2023/04/16 08:58:56;;;;;;;85.40;38.55;;;6.50;99.90;;;;;;6129777;23;20022;-91
2023/04/16 09:01:47;;;;;;;91.78;38.47;;;6.50;99.90;;;;;;6123212;23;20026;-92
2023/04/16 09:04:42;;;;;;;78.95;36.67;;;6.50;99.90;;;;;;6125944;23;20022;-91
2023/04/16 09:11:23;;;;;;;78.10;34.63;;;6.50;99.90;;;;;;6190698;23;20031;-93
2023/04/16 09:14:11;;;;;;;73.45;33.25;;;6.50;99.90;;;;;;6189682;23;20029;-93
2023/04/16 09:22:12;;;;;;;69.47;33.72;;;6.90;99.90;;;;;;6222617;23;20031;-91
2023/04/16 09:25:01;;;;;;;62.08;30.27;;;7.20;99.90;;;;;;6183965;23;20026;-88
2023/04/16 09:27:50;;;;;;;60.53;30.08;;;7.40;99.90;;;;;;6130856;23;20022;-92
2023/04/16 09:30:39;;;;;;;53.55;28.35;;;7.40;99.90;;;;;;6130647;23;20052;-93
2023/04/16 09:33:27;;;;;;;62.15;30.02;;;7.40;99.90;;;;;;6123315;23;20461;-91
2023/04/16 09:36:25;;;;;;;54.97;28.13;;;7.40;99.90;;;;;;6129364;23;20048;-90
2023/04/16 09:39:51;;;;;;;55.53;27.88;;;7.50;99.90;;;;;;6128952;23;20314;-94
2023/04/16 09:42:42;;;;;;;53.13;27.48;;;7.40;99.90;;;;;;6128582;23;20052;-91
2023/04/16 09:46:10;;;;;;;53.15;27.45;;;7.40;99.90;;;;;;6008209;23;20027;-92
2023/04/16 09:49:08;;;;;;;57.55;28.50;;;7.40;99.90;;;;;;6041841;23;20034;-94
2023/04/16 09:52:24;;;;;;;55.53;28.35;;;7.30;99.90;;;;;;6086245;23;20115;-93
2023/04/16 09:59:33;;;;;;;59.63;29.08;;;7.30;99.90;;;;;;6101324;23;20842;-92
2023/04/16 10:02:33;;;;;;;62.10;28.92;;;7.30;99.90;;;;;;6106666;23;20006;-92
2023/04/16 10:09:38;;;;;;;64.82;29.75;;;7.20;99.90;;;;;;6040476;23;20053;-92
2023/04/16 10:12:27;;;;;;;67.30;31.80;;;7.20;99.90;;;;;;6043397;23;20081;-88
2023/04/16 10:15:15;;;;;;;61.38;30.80;;;7.10;99.90;;;;;;6050606;23;20085;-93
2023/04/16 10:21:54;;;;;;;64.72;30.83;;;7.10;99.90;;;;;;6136850;23;20397;-93
2023/04/16 10:24:45;;;;;;;66.05;30.92;;;7.10;99.90;;;;;;6134390;23;20091;-93
2023/04/16 10:27:55;;;;;;;61.47;31.20;;;7.10;99.90;;;;;;6125863;23;20095;-90
2023/04/16 10:30:56;;;;;;;62.67;31.10;;;7.10;99.90;;;;;;6132184;23;20041;-92
2023/04/16 10:33:49;;;;;;;64.53;30.90;;;7.10;99.90;;;;;;6128843;23;20030;-90
2023/04/16 10:36:39;;;;;;;63.72;30.48;;;7.10;99.90;;;;;;6128815;23;20029;-93
2023/04/16 10:39:28;;;;;;;64.38;31.13;;;7.10;99.90;;;;;;6126422;23;20037;-89
2023/04/16 10:42:18;;;;;;;64.90;30.83;;;7.20;99.90;;;;;;6134930;23;20037;-90
2023/04/16 10:45:10;;;;;;;59.63;29.75;;;7.20;99.90;;;;;;6131566;23;20037;-91
2023/04/16 10:47:58;;;;;;;64.35;29.98;;;7.20;99.90;;;;;;6125891;23;20046;-92
2023/04/16 10:50:56;;;;;;;57.70;27.38;;;7.10;99.90;;;;;;6124492;23;20046;-92
2023/04/16 10:53:46;;;;;;;54.20;27.83;;;7.10;99.90;;;;;;6131538;23;20029;-89
2023/04/16 10:56:35;;;;;;;62.40;27.67;;;7.20;99.90;;;;;;6126283;23;20041;-90
2023/04/16 10:59:24;;;;;;;59.40;29.33;;;7.20;99.90;;;;;;6126859;23;20329;-89
2023/04/16 11:02:16;;;;;;;60.78;27.33;;;7.10;99.90;;;;;;6126740;23;20091;-88
2023/04/16 11:05:21;;;;;;;55.00;26.25;;;7.10;99.90;;;;;;6125057;23;20026;-90
2023/04/16 11:08:14;;;;;;;47.28;25.48;;;7.10;99.90;;;;;;6121881;23;20025;-92
2023/04/16 11:11:41;;;;;;;51.10;25.15;;;7.10;99.90;;;;;;6125892;23;20010;-91
2023/04/16 11:14:35;;;;;;;50.47;24.95;;;7.30;99.90;;;;;;6122419;23;20333;-89
2023/04/16 11:17:38;;;;;;;45.40;22.67;;;7.40;99.90;;;;;;6123933;23;20572;-86
2023/04/16 11:20:27;;;;;;;46.75;22.63;;;7.40;99.90;;;;;;6123428;23;20117;-88
2023/04/16 11:23:17;;;;;;;37.47;21.08;;;7.50;99.90;;;;;;6121176;23;20401;-88
2023/04/16 11:26:04;;;;;;;42.63;21.83;;;7.50;99.90;;;;;;6123467;23;20405;-88
2023/04/16 11:28:54;;;;;;;37.53;20.33;;;7.60;99.90;;;;;;6122749;23;20022;-88
2023/04/16 11:31:48;;;;;;;35.35;19.63;;;7.50;99.90;;;;;;6121661;23;20030;-86
2023/04/16 11:47:15;;;;;;;33.60;18.95;;;7.90;99.90;;;;;;6048480;23;20026;-93
2023/04/16 11:58:34;;;;;;;28.17;16.45;;;8.00;99.90;;;;;;6123603;23;20030;-88
2023/04/16 12:06:24;;;;;;;26.75;16.20;;;8.10;99.90;;;;;;6125501;23;20044;-92
2023/04/16 12:10:05;;;;;;;27.95;15.27;;;8.20;99.90;;;;;;6191056;23;20025;-91
2023/04/16 12:21:54;;;;;;;23.90;13.32;;;8.60;99.90;;;;;;6041257;23;20027;-93
2023/04/16 12:43:15;;;;;;;16.77;10.63;;;8.60;99.90;;;;;;6233159;22;1530730;-90
2023/04/16 12:46:03;;;;;;;16.08;9.35;;;8.30;99.90;;;;;;6288902;22;20333;-91
2023/04/16 12:48:51;;;;;;;11.73;7.65;;;8.10;99.90;;;;;;6288611;22;20023;-92
2023/04/16 12:51:48;;;;;;;13.73;8.25;;;8.10;99.90;;;;;;6287345;22;20102;-93
2023/04/16 12:54:40;;;;;;;9.98;6.53;;;8.10;99.90;;;;;;6288596;22;20019;-91
2023/04/16 12:57:57;;;;;;;8.95;5.97;;;8.10;99.90;;;;;;6291872;22;20435;-91
2023/04/16 13:00:47;;;;;;;6.13;4.97;;;8.10;99.90;;;;;;6289029;22;20316;-92
2023/04/16 13:03:37;;;;;;;9.45;5.80;;;8.20;99.90;;;;;;6289243;22;20027;-91
2023/04/16 13:10:35;;;;;;;8.00;5.10;;;8.20;99.90;;;;;;6288036;22;20028;-92
2023/04/16 13:17:51;;;;;;;;;;;;;;;;;;;;;
2023/04/16 13:20:49;;;;;;;11.48;5.97;;;8.20;99.90;;;;;;6291801;22;20051;-89
2023/04/16 13:23:41;;;;;;;31.50;12.98;;;8.20;99.90;;;;;;6302871;22;20031;-91
2023/04/16 13:26:35;;;;;;;10.18;6.60;;;8.20;99.90;;;;;;6303337;22;20023;-90
2023/04/16 13:29:24;;;;;;;8.15;5.78;;;8.30;99.90;;;;;;6302214;22;20031;-91
2023/04/16 13:32:14;;;;;;;10.30;5.95;;;8.30;99.90;;;;;;6312344;22;20035;-90
2023/04/16 13:35:04;;;;;;;10.20;6.70;;;8.40;99.90;;;;;;6281648;22;20045;-92
2023/04/16 13:37:56;;;;;;;10.18;5.90;;;8.40;99.90;;;;;;6305183;22;20020;-91
2023/04/16 13:41:05;;;;;;;9.25;6.38;;;8.40;99.90;;;;;;6303094;22;20027;-92
2023/04/16 13:44:27;;;;;;;;;;;;;;;;;;;;;
2023/04/16 13:47:29;;;;;;;8.10;6.05;;;8.30;99.90;;;;;;6287751;22;20023;-87
2023/04/16 13:50:23;;;;;;;10.52;6.38;;;8.20;99.90;;;;;;6284279;22;20059;-88
2023/04/16 13:53:10;;;;;;;8.75;6.65;;;8.20;99.90;;;;;;6283242;22;20016;-88
2023/04/16 13:56:12;;;;;;;9.80;7.00;;;8.10;99.90;;;;;;6283841;22;20030;-92
2023/04/16 14:09:53;;;;;;;10.07;6.93;;;8.10;99.90;;;;;;6252478;23;20063;-89
2023/04/16 14:12:55;;;;;;;11.50;7.47;;;8.10;99.90;;;;;;6226667;23;20082;-93
2023/04/16 14:15:52;;;;;;;12.35;7.90;;;8.10;99.90;;;;;;6229367;22;20027;-92
2023/04/16 14:18:41;;;;;;;12.38;8.27;;;8.00;99.90;;;;;;6233628;23;20048;-92
2023/04/16 14:21:40;;;;;;;14.65;8.55;;;8.00;99.90;;;;;;6231851;23;20055;-92
2023/04/16 14:24:27;;;;;;;13.10;8.80;;;8.00;99.90;;;;;;6235364;23;20059;-93
2023/04/16 14:27:17;;;;;;;12.80;8.60;;;7.90;99.90;;;;;;6230798;23;20080;-91
2023/04/16 14:30:05;;;;;;;15.52;9.70;;;8.00;99.90;;;;;;6230453;23;20008;-91
2023/04/16 14:32:53;;;;;;;16.33;10.27;;;7.90;99.90;;;;;;6234899;23;20016;-92
2023/04/16 14:35:40;;;;;;;19.92;11.50;;;7.90;99.90;;;;;;6232500;23;20088;-92
2023/04/16 14:38:30;;;;;;;20.73;11.40;;;7.90;99.90;;;;;;6223158;23;20087;-91
2023/04/16 14:41:20;;;;;;;17.35;11.50;;;7.90;99.90;;;;;;6229910;23;20186;-90
2023/04/16 14:44:07;;;;;;;20.27;12.30;;;7.80;99.90;;;;;;6254744;22;20104;-91
2023/04/16 14:46:55;;;;;;;20.55;13.00;;;7.70;99.90;;;;;;6227856;23;20047;-90
2023/04/16 14:49:47;;;;;;;20.73;12.90;;;7.70;99.90;;;;;;6228240;23;20032;-93
2023/04/16 14:52:35;;;;;;;22.17;12.95;;;7.70;99.90;;;;;;6223113;23;20036;-91
2023/04/16 14:55:22;;;;;;;24.58;13.52;;;7.60;99.90;;;;;;6212411;23;20025;-94
2023/04/16 14:58:10;;;;;;;26.23;14.50;;;7.70;99.90;;;;;;6218625;23;20040;-90
2023/04/16 15:01:01;;;;;;;27.15;15.40;;;7.70;99.90;;;;;;6239639;23;20031;-93
2023/04/16 15:03:54;;;;;;;25.58;15.23;;;7.60;99.90;;;;;;6217336;23;20063;-91
2023/04/16 15:06:44;;;;;;;27.08;15.45;;;7.60;99.90;;;;;;6249456;23;20056;-92
2023/04/16 15:09:34;;;;;;;26.60;15.23;;;7.60;99.90;;;;;;6223801;23;20035;-91
2023/04/16 15:12:25;;;;;;;32.05;17.58;;;7.60;99.90;;;;;;6230961;23;20043;-91
2023/04/16 15:15:14;;;;;;;29.13;17.45;;;7.60;99.90;;;;;;6229080;23;20099;-91
2023/04/16 15:18:02;;;;;;;29.00;17.75;;;7.50;99.90;;;;;;6222251;23;20100;-91
2023/04/16 15:20:53;;;;;;;42.20;22.23;;;7.50;99.90;;;;;;6228120;23;20032;-91
2023/04/16 15:23:41;;;;;;;39.47;20.77;;;7.50;99.90;;;;;;6226817;23;20025;-89
2023/04/16 15:26:29;;;;;;;62.25;26.88;;;7.50;99.90;;;;;;6225037;23;20103;-90
2023/04/16 15:29:17;;;;;;;42.22;21.95;;;7.50;99.90;;;;;;6221161;23;20024;-90
2023/04/16 15:32:29;;;;;;;45.58;23.55;;;7.50;99.90;;;;;;6228048;23;20040;-91
2023/04/16 15:39:15;;;;;;;51.30;25.58;;;7.40;99.90;;;;;;6200638;23;20035;-93
2023/04/16 15:42:06;;;;;;;50.35;25.30;;;7.40;99.90;;;;;;6219591;23;20025;-92
2023/04/16 15:45:12;;;;;;;49.85;24.48;;;7.40;99.90;;;;;;6221787;23;20121;-92
2023/04/16 15:48:44;;;;;;;49.80;24.70;;;7.50;99.90;;;;;;6223409;23;20020;-89
2023/04/16 15:52:19;;;;;;;;;;;;;;;;;;;;;
2023/04/16 15:55:40;;;;;;;49.05;23.23;;;7.50;99.90;;;;;;6164881;23;20025;-92
2023/04/16 15:58:28;;;;;;;48.20;24.00;;;7.50;99.90;;;;;;6150753;23;20011;-91
2023/04/16 16:01:18;;;;;;;42.15;20.05;;;7.50;99.90;;;;;;6170602;23;20021;-90
2023/04/16 16:04:24;;;;;;;43.33;21.02;;;7.50;99.90;;;;;;6149614;23;20036;-90
2023/04/16 16:07:14;;;;;;;42.15;20.33;;;7.50;99.90;;;;;;6143823;23;20026;-92
2023/04/16 16:10:02;;;;;;;40.95;21.88;;;7.50;99.90;;;;;;6135726;23;20223;-93
2023/04/16 16:12:51;;;;;;;39.78;20.90;;;7.50;99.90;;;;;;6139691;23;20172;-94
2023/04/16 16:15:42;;;;;;;38.08;20.25;;;7.50;99.90;;;;;;6157169;23;20021;-92
2023/04/16 16:18:32;;;;;;;38.25;19.67;;;7.60;99.90;;;;;;6156874;23;20022;-94
2023/04/16 16:21:20;;;;;;;38.00;19.67;;;7.60;99.90;;;;;;6160656;23;20021;-92
2023/04/16 16:24:08;;;;;;;37.40;19.85;;;7.60;99.90;;;;;;6218958;23;20447;-94
2023/04/16 16:27:00;;;;;;;34.97;19.45;;;7.60;99.90;;;;;;6218041;23;20036;-92
2023/04/16 16:29:47;;;;;;;39.95;19.98;;;7.60;99.90;;;;;;6215906;23;20021;-92
2023/04/16 16:32:42;;;;;;;36.33;20.08;;;7.60;99.90;;;;;;6220846;23;20016;-89
2023/04/16 16:35:53;;;;;;;36.05;20.17;;;7.50;99.90;;;;;;6232198;23;20096;-93
2023/04/16 16:38:50;;;;;;;41.00;19.63;;;7.50;99.90;;;;;;6226979;23;20047;-91
2023/04/16 16:41:55;;;;;;;50.40;23.23;;;7.60;99.90;;;;;;6221472;23;20108;-91
2023/04/16 16:44:46;;;;;;;55.78;27.17;;;7.50;99.90;;;;;;6222932;23;20093;-93
2023/04/16 16:47:35;;;;;;;53.25;25.45;;;7.50;99.90;;;;;;6228488;23;20024;-90
2023/04/16 16:50:25;;;;;;;60.65;28.75;;;7.50;99.90;;;;;;6222285;23;20067;-92
2023/04/16 16:53:26;;;;;;;58.35;27.98;;;7.50;99.90;;;;;;6225282;23;20063;-93
2023/04/16 16:56:14;;;;;;;62.78;30.65;;;7.50;99.90;;;;;;6223442;23;20031;-93
2023/04/16 16:59:07;;;;;;;68.78;31.50;;;7.50;99.90;;;;;;6229235;23;20025;-92
2023/04/16 17:01:56;;;;;;;73.57;32.15;;;7.50;99.90;;;;;;6230546;23;20051;-92
2023/04/16 17:04:48;;;;;;;75.47;33.97;;;7.50;99.90;;;;;;6235780;23;20024;-89
2023/04/16 17:07:35;;;;;;;84.18;37.70;;;7.50;99.90;;;;;;6232507;23;20025;-88
2023/04/16 17:10:22;;;;;;;78.22;35.00;;;7.40;99.90;;;;;;6221951;23;20162;-91
2023/04/16 17:13:12;;;;;;;82.97;36.05;;;7.40;99.90;;;;;;6218147;23;20025;-92
2023/04/16 17:16:00;;;;;;;79.38;35.55;;;7.40;99.90;;;;;;6221961;23;20032;-93
2023/04/16 17:18:50;;;;;;;88.50;39.22;;;7.40;99.90;;;;;;6229795;23;20020;-93
2023/04/16 17:21:54;;;;;;;91.32;39.72;;;7.40;99.90;;;;;;6227796;23;20071;-91
2023/04/16 17:24:44;;;;;;;95.70;40.72;;;7.40;99.90;;;;;;6222884;23;20021;-92
2023/04/16 17:28:10;;;;;;;99.73;40.50;;;7.40;99.90;;;;;;6229993;23;20035;-93
2023/04/16 17:30:57;;;;;;;107.20;43.15;;;7.40;99.90;;;;;;6230106;23;20240;-90
2023/04/16 17:33:45;;;;;;;105.03;43.95;;;7.40;99.90;;;;;;6249507;23;20009;-93
2023/04/16 17:36:35;;;;;;;110.57;46.13;;;7.40;99.90;;;;;;6229249;23;20060;-93
2023/04/16 17:39:59;;;;;;;116.97;46.75;;;7.40;99.90;;;;;;6236571;23;20013;-90
2023/04/16 17:43:00;;;;;;;126.32;48.72;;;7.40;99.90;;;;;;6227106;23;20064;-91
2023/04/16 17:46:08;;;;;;;142.20;52.60;;;7.40;99.90;;;;;;6234273;23;20028;-91
2023/04/16 17:49:03;;;;;;;131.40;50.72;;;7.40;99.90;;;;;;6228882;23;20055;-91
2023/04/16 17:52:00;;;;;;;139.48;51.10;;;7.40;99.90;;;;;;6227842;23;20025;-93
2023/04/16 17:54:48;;;;;;;135.15;52.38;;;7.40;99.90;;;;;;6228599;23;20301;-92
2023/04/16 17:57:36;;;;;;;144.25;52.40;;;7.40;99.90;;;;;;6227837;23;20020;-93
2023/04/16 18:00:25;;;;;;;140.68;51.95;;;7.40;99.90;;;;;;6230594;23;20032;-92
2023/04/16 18:03:15;;;;;;;149.52;54.97;;;7.30;99.90;;;;;;6229082;23;20025;-91
2023/04/16 18:06:10;;;;;;;156.15;56.00;;;7.30;99.90;;;;;;6222526;23;20331;-91
2023/04/16 18:08:58;;;;;;;153.35;55.63;;;7.30;99.90;;;;;;6221955;23;20036;-93
2023/04/16 18:11:48;;;;;;;151.73;55.50;;;7.40;99.90;;;;;;6221272;23;20040;-93
2023/04/16 18:14:39;;;;;;;188.98;59.72;;;7.40;99.90;;;;;;6220222;23;20364;-90
2023/04/16 18:17:27;;;;;;;170.50;57.83;;;7.40;99.90;;;;;;6217471;23;20095;-92
2023/04/16 18:20:18;;;;;;;165.30;58.20;;;7.40;99.90;;;;;;6239062;23;20025;-89
2023/04/16 18:23:05;;;;;;;163.10;58.97;;;7.40;99.90;;;;;;6217369;23;20099;-92
2023/04/16 18:25:53;;;;;;;145.50;54.80;;;7.40;99.90;;;;;;6224155;23;20035;-93
2023/04/16 18:28:43;;;;;;;153.13;56.50;;;7.30;99.90;;;;;;6240853;23;20033;-92
2023/04/16 18:31:30;;;;;;;146.00;54.67;;;7.40;99.90;;;;;;6220611;23;20047;-92
2023/04/16 18:34:21;;;;;;;159.02;56.83;;;7.30;99.90;;;;;;6239785;23;20101;-95
2023/04/16 18:37:09;;;;;;;144.48;55.10;;;7.30;99.90;;;;;;6219705;23;20080;-90